Time;durP1;ratioP1;P1;durP2;ratioP2;P2;SDS_P1;SDS_P2;PMS_P1;PMS_P2;Temp;Humidity;BMP_temperature;BMP_pressure;BME280_temperature;BME280_humidity;BME280_pressure;Samples;Min_cycle;Max_cycle;Signal;HPM_P1;HPM_P2
2023/01/25 00:15:16;;;;;;;6.27;5.67;;;;;;;4.22;62.91;96005.50;5082768;27;20556;-66
2023/01/25 00:17:41;;;;;;;6.87;5.97;;;;;;;4.04;63.23;96002.22;5030785;28;20237;-66
2023/01/25 00:20:08;;;;;;;7.20;6.03;;;;;;;4.14;63.40;96000.78;5025821;28;20226;-66
2023/01/25 00:22:33;;;;;;;7.43;6.57;;;;;;;4.10;63.60;95998.44;5026766;28;20287;-66
2023/01/25 00:24:59;;;;;;;7.97;6.50;;;;;;;4.02;64.13;96006.69;5026161;28;20222;-66
2023/01/25 00:27:24;;;;;;;6.87;6.00;;;;;;;4.09;63.52;96005.41;5024383;28;20197;-66
2023/01/25 00:29:50;;;;;;;8.50;6.90;;;;;;;4.13;63.41;96003.47;5023663;28;20221;-67
2023/01/25 00:32:15;;;;;;;6.80;6.10;;;;;;;4.01;64.17;96002.41;5027287;28;20572;-66
2023/01/25 00:34:49;;;;;;;7.00;6.30;;;;;;;3.62;65.26;95998.50;5024610;28;20283;-66
2023/01/25 00:37:42;;;;;;;8.07;6.70;;;;;;;3.87;64.84;95997.13;5039748;28;20214;-66
2023/01/25 00:40:10;;;;;;;7.53;6.73;;;;;;;4.02;64.46;96005.84;5022118;28;20217;-67
2023/01/25 00:42:35;;;;;;;8.63;6.33;;;;;;;3.81;64.47;96000.91;5022383;28;20202;-66
2023/01/25 00:45:01;;;;;;;6.63;6.00;;;;;;;3.95;64.00;96000.97;5027313;28;20289;-66
2023/01/25 00:47:26;;;;;;;7.83;6.50;;;;;;;3.91;64.52;96007.28;5016446;28;20729;-66
2023/01/25 00:49:52;;;;;;;7.07;6.37;;;;;;;3.88;64.49;96001.44;5032196;28;20233;-66
2023/01/25 00:52:17;;;;;;;6.20;5.60;;;;;;;3.93;63.94;96009.81;5046425;28;20267;-67
2023/01/25 00:54:42;;;;;;;7.53;5.93;;;;;;;3.97;63.68;96006.94;5041541;28;20194;-66
2023/01/25 00:57:09;;;;;;;6.73;5.87;;;;;;;4.02;63.54;96009.28;5045682;28;20199;-67
2023/01/25 00:59:34;;;;;;;6.73;5.83;;;;;;;3.91;63.93;96009.06;5046829;28;20222;-66
2023/01/25 01:02:01;;;;;;;6.83;6.13;;;;;;;3.95;63.36;96006.16;5045523;28;20312;-67
2023/01/25 01:04:26;;;;;;;6.03;5.43;;;;;;;3.86;63.64;96003.28;5045814;28;20229;-66
2023/01/25 01:06:53;;;;;;;6.20;5.40;;;;;;;3.89;63.25;96003.94;5043529;28;20298;-67
2023/01/25 01:09:19;;;;;;;5.67;4.90;;;;;;;3.86;62.73;96001.50;5045535;28;20214;-66
2023/01/25 01:11:45;;;;;;;6.43;5.27;;;;;;;3.67;62.82;96000.88;5046491;28;20226;-66
2023/01/25 01:14:11;;;;;;;5.80;4.83;;;;;;;3.80;62.61;96001.84;5040142;28;20328;-66
2023/01/25 01:16:37;;;;;;;5.80;4.60;;;;;;;3.82;63.14;95999.97;5025512;28;20225;-66
2023/01/25 01:19:03;;;;;;;5.00;4.50;;;;;;;3.93;62.31;96002.00;5031484;28;20226;-66
2023/01/25 01:21:28;;;;;;;6.00;5.13;;;;;;;3.61;63.66;96002.06;5025345;28;20206;-67
2023/01/25 01:23:54;;;;;;;5.93;4.90;;;;;;;3.76;63.15;96001.16;5033408;28;20209;-66
2023/01/25 01:26:20;;;;;;;5.13;4.60;;;;;;;3.68;63.00;96000.75;5029561;28;20234;-66
2023/01/25 01:28:46;;;;;;;5.70;4.93;;;;;;;3.18;65.15;95996.59;5031926;28;20256;-68
2023/01/25 01:31:14;;;;;;;5.07;4.50;;;;;;;3.50;63.69;95994.84;5032317;28;20264;-68
2023/01/25 01:33:39;;;;;;;6.13;5.03;;;;;;;3.61;63.66;95990.78;5031540;28;20274;-68
2023/01/25 01:36:11;;;;;;;5.03;4.57;;;;;;;3.63;63.94;95989.78;5032604;28;20273;-67
2023/01/25 01:38:36;;;;;;;5.77;4.43;;;;;;;3.75;63.79;95983.06;5025648;28;20226;-67
2023/01/25 01:41:02;;;;;;;6.03;4.77;;;;;;;3.73;63.75;95979.69;5017729;28;20238;-67
2023/01/25 01:43:29;;;;;;;5.17;4.60;;;;;;;3.72;63.31;95981.47;5028182;28;20226;-67
2023/01/25 01:45:58;;;;;;;5.53;4.43;;;;;;;3.72;63.62;95984.06;5031663;28;20222;-68
2023/01/25 01:48:42;;;;;;;5.03;3.93;;;;;;;3.70;63.79;95979.88;5029699;28;20277;-68
2023/01/25 01:51:07;;;;;;;5.77;4.63;;;;;;;3.73;63.56;95977.09;5014377;28;20222;-68
2023/01/25 01:53:33;;;;;;;5.20;4.47;;;;;;;3.45;64.03;95973.44;5037038;28;20210;-68
2023/01/25 01:56:04;;;;;;;6.10;4.37;;;;;;;3.62;63.79;95975.09;5031137;28;20229;-68
2023/01/25 01:58:30;;;;;;;5.07;4.53;;;;;;;3.73;63.76;95979.69;5023862;28;20228;-68
2023/01/25 02:00:56;;;;;;;5.83;4.40;;;;;;;3.72;63.75;95975.44;5030619;28;20237;-68
2023/01/25 02:03:22;;;;;;;5.80;4.77;;;;;;;3.78;63.57;95975.09;5029213;28;20206;-69
2023/01/25 02:06:10;;;;;;;5.93;4.97;;;;;;;3.68;63.93;95973.91;5029384;28;20218;-69
2023/01/25 02:08:36;;;;;;;6.37;4.87;;;;;;;3.71;64.32;95968.53;5029166;28;20228;-68
2023/01/25 02:11:03;;;;;;;6.53;5.17;;;;;;;3.83;63.95;95982.63;5030054;28;20214;-69
2023/01/25 02:13:30;;;;;;;5.87;4.90;;;;;;;3.75;64.18;95980.47;5029693;28;20261;-68
2023/01/25 02:15:56;;;;;;;5.67;4.93;;;;;;;3.63;64.49;95974.16;5031649;28;20248;-68
2023/01/25 02:18:23;;;;;;;6.40;4.77;;;;;;;3.65;63.91;95976.69;5031875;28;20198;-68
2023/01/25 02:20:55;;;;;;;5.33;4.33;;;;;;;3.63;63.99;95973.34;5025296;28;20253;-68
2023/01/25 02:23:46;;;;;;;4.93;4.40;;;;;;;3.65;64.40;95972.31;5030694;28;20288;-68
2023/01/25 02:26:12;;;;;;;5.43;3.60;;;;;;;3.58;64.37;95978.78;5027730;28;20226;-68
2023/01/25 02:28:43;;;;;;;4.27;3.87;;;;;;;3.68;63.41;95979.13;5027889;28;20222;-68
2023/01/25 02:31:08;;;;;;;4.33;3.57;;;;;;;3.62;63.62;95977.72;5025022;28;20243;-68
2023/01/25 02:33:34;;;;;;;4.13;3.07;;;;;;;3.66;63.63;95979.22;5029960;28;20381;-68
2023/01/25 02:36:16;;;;;;;3.80;3.40;;;;;;;3.48;64.02;95973.28;5030853;28;20190;-68
2023/01/25 02:38:58;;;;;;;4.33;3.93;;;;;;;3.70;63.18;95978.09;5028113;28;20243;-68
2023/01/25 02:41:36;;;;;;;4.47;3.83;;;;;;;3.63;63.29;95970.75;5030740;28;20226;-66
2023/01/25 02:44:05;;;;;;;4.53;3.40;;;;;;;3.58;63.45;95970.16;5040336;28;20229;-66
2023/01/25 02:46:34;;;;;;;4.63;3.53;;;;;;;3.59;63.92;95967.47;5029834;28;20230;-66
2023/01/25 02:49:01;;;;;;;4.27;3.60;;;;;;;3.64;63.66;95965.47;5027754;28;20336;-66
2023/01/25 02:51:29;;;;;;;3.80;3.37;;;;;;;3.28;64.61;95966.56;5029708;28;20309;-66
2023/01/25 02:53:55;;;;;;;4.70;3.67;;;;;;;3.37;64.30;95961.78;5031404;28;20268;-66
2023/01/25 02:56:21;;;;;;;4.87;3.90;;;;;;;3.60;63.31;95968.31;5026740;28;20230;-66
2023/01/25 02:58:47;;;;;;;4.70;3.80;;;;;;;3.50;63.90;95967.97;5029383;28;20313;-66
2023/01/25 03:01:13;;;;;;;4.27;3.87;;;;;;;3.60;63.47;95974.34;5029972;28;20218;-67
2023/01/25 03:03:38;;;;;;;3.70;3.30;;;;;;;3.63;63.60;95971.56;5026903;28;20202;-67
2023/01/25 03:06:06;;;;;;;3.30;3.00;;;;;;;3.68;63.04;95966.94;5030607;28;20205;-66
2023/01/25 03:08:31;;;;;;;5.07;3.70;;;;;;;3.62;63.53;95976.88;5028281;28;20209;-66
2023/01/25 03:10:59;;;;;;;4.37;3.73;;;;;;;3.60;64.04;95979.53;5025081;28;20281;-67
2023/01/25 03:13:24;;;;;;;4.00;3.47;;;;;;;3.63;63.90;95974.16;5026613;28;20222;-67
2023/01/25 03:15:51;;;;;;;4.47;3.30;;;;;;;3.64;63.71;95969.84;5029746;28;20231;-67
2023/01/25 03:18:16;;;;;;;3.77;3.43;;;;;;;3.62;63.69;95972.50;5028887;28;20228;-68
2023/01/25 03:20:41;;;;;;;3.93;3.53;;;;;;;3.57;64.23;95976.28;5027302;28;20285;-66
2023/01/25 03:23:07;;;;;;;4.20;3.40;;;;;;;3.47;64.31;95966.38;5027152;28;20232;-66
2023/01/25 03:25:32;;;;;;;3.50;3.20;;;;;;;3.46;64.58;95967.31;5029878;28;20229;-66
2023/01/25 03:27:58;;;;;;;3.57;3.20;;;;;;;3.45;64.26;95964.81;5027830;28;20229;-67
2023/01/25 03:30:23;;;;;;;3.90;3.50;;;;;;;3.58;64.22;95972.75;5029802;28;20202;-66
2023/01/25 03:32:49;;;;;;;4.90;3.90;;;;;;;3.58;63.67;95972.75;5030059;28;20317;-66
2023/01/25 03:35:15;;;;;;;3.73;3.43;;;;;;;3.48;63.86;95964.66;5029767;28;20226;-66
2023/01/25 03:37:40;;;;;;;5.60;3.90;;;;;;;3.46;64.37;95972.53;5027479;28;20307;-66
2023/01/25 03:40:06;;;;;;;4.20;3.70;;;;;;;3.45;64.12;95970.84;5028909;28;20225;-67
2023/01/25 03:42:31;;;;;;;4.23;3.63;;;;;;;3.49;64.04;95968.91;5029578;28;20217;-67
2023/01/25 03:44:57;;;;;;;4.20;3.73;;;;;;;3.50;63.87;95967.97;5030445;28;20235;-67
2023/01/25 03:47:22;;;;;;;4.03;3.53;;;;;;;3.56;64.20;95967.66;5028738;28;20237;-66
2023/01/25 03:49:48;;;;;;;4.20;3.80;;;;;;;3.59;63.56;95966.66;5026517;28;20237;-66
2023/01/25 03:52:13;;;;;;;3.97;3.43;;;;;;;3.41;63.92;95966.72;5023997;28;20222;-66
2023/01/25 03:54:38;;;;;;;4.77;3.90;;;;;;;3.44;63.81;95958.75;5029583;28;20218;-66
2023/01/25 03:57:04;;;;;;;5.10;4.50;;;;;;;3.46;63.66;95958.69;5028797;28;20189;-65
2023/01/25 03:59:29;;;;;;;4.30;3.87;;;;;;;3.47;63.44;95963.78;5029908;28;20280;-66
2023/01/25 04:01:55;;;;;;;4.33;3.80;;;;;;;3.51;63.53;95960.09;5027090;28;20214;-67
2023/01/25 04:04:20;;;;;;;4.87;3.67;;;;;;;3.45;64.08;95955.25;5028222;28;20254;-65
2023/01/25 04:06:46;;;;;;;5.10;4.20;;;;;;;3.23;64.58;95952.16;5026677;28;20190;-65
2023/01/25 04:09:13;;;;;;;4.40;3.90;;;;;;;3.30;64.24;95945.69;5028288;28;20187;-65
2023/01/25 04:11:39;;;;;;;4.27;3.87;;;;;;;3.36;64.07;95960.94;5029167;28;20215;-66
2023/01/25 04:14:04;;;;;;;4.63;4.13;;;;;;;3.39;63.97;95954.75;5026716;28;20240;-65
2023/01/25 04:16:30;;;;;;;4.13;3.73;;;;;;;3.42;64.23;95950.22;5028055;28;20229;-65
2023/01/25 04:18:56;;;;;;;4.13;3.73;;;;;;;3.50;63.82;95954.97;5028175;28;20217;-65
2023/01/25 04:21:21;;;;;;;4.20;3.80;;;;;;;3.41;64.02;95947.69;5044976;28;20205;-65
2023/01/25 04:23:47;;;;;;;4.13;3.73;;;;;;;3.50;63.82;95944.56;5029282;28;20214;-67
2023/01/25 04:26:13;;;;;;;4.20;3.80;;;;;;;3.47;63.29;95948.19;5026208;28;20229;-65
2023/01/25 04:28:38;;;;;;;3.80;3.40;;;;;;;3.45;63.06;95944.84;5025794;28;20218;-66
2023/01/25 04:31:05;;;;;;;4.17;3.77;;;;;;;3.43;63.89;95954.50;5028265;28;20228;-65
2023/01/25 04:33:31;;;;;;;4.13;3.73;;;;;;;3.52;63.65;95947.94;5029785;28;20182;-65
2023/01/25 04:35:57;;;;;;;4.33;3.93;;;;;;;3.40;63.25;95959.88;5024287;28;20183;-66
2023/01/25 04:38:22;;;;;;;4.13;3.73;;;;;;;3.37;63.46;95961.78;5029211;28;20218;-66
2023/01/25 04:40:49;;;;;;;4.77;3.80;;;;;;;3.46;63.37;95971.69;5029078;28;20244;-65
2023/01/25 04:43:15;;;;;;;4.33;3.90;;;;;;;3.41;63.70;95958.94;5028164;28;20241;-67
2023/01/25 04:45:41;;;;;;;4.33;3.70;;;;;;;3.49;62.98;95968.91;5023990;28;20429;-66
2023/01/25 04:48:08;;;;;;;3.40;3.10;;;;;;;3.39;62.73;95970.34;5029460;28;20197;-66
2023/01/25 04:50:35;;;;;;;4.87;4.10;;;;;;;3.25;63.64;95964.13;5030354;28;20276;-67
2023/01/25 04:53:01;;;;;;;3.67;3.37;;;;;;;3.37;62.56;95957.44;5032844;28;20225;-67
2023/01/25 04:55:26;;;;;;;3.63;3.33;;;;;;;3.40;62.89;95962.47;5025191;28;20250;-67
2023/01/25 04:57:52;;;;;;;4.63;3.40;;;;;;;3.44;62.63;95963.13;5032397;28;20225;-66
2023/01/25 05:00:18;;;;;;;3.60;3.30;;;;;;;3.30;61.80;95962.13;5033182;28;20194;-67
2023/01/25 05:02:44;;;;;;;3.50;3.20;;;;;;;3.39;61.82;95963.38;5010845;28;20229;-72
2023/01/25 05:05:10;;;;;;;3.00;2.70;;;;;;;3.30;62.18;95956.09;5031894;28;20237;-72
2023/01/25 05:07:36;;;;;;;3.63;3.10;;;;;;;3.37;61.71;95960.03;5032922;28;20240;-71
2023/01/25 05:10:02;;;;;;;4.30;3.27;;;;;;;3.36;61.90;95954.91;5031670;28;20218;-72
2023/01/25 05:12:27;;;;;;;3.73;3.37;;;;;;;3.31;62.18;95952.56;5031432;28;20254;-72
2023/01/25 05:14:53;;;;;;;3.97;3.57;;;;;;;3.38;61.91;95953.91;5032662;28;20269;-71
2023/01/25 05:17:18;;;;;;;5.13;4.53;;;;;;;3.38;61.97;95953.91;5032340;28;20253;-70
2023/01/25 05:19:43;;;;;;;3.87;3.47;;;;;;;3.43;61.61;95954.50;5032309;28;20229;-71
2023/01/25 05:22:17;;;;;;;4.63;2.97;;;;;;;3.25;62.39;95943.34;5031654;28;20224;-71
2023/01/25 05:24:44;;;;;;;4.07;3.33;;;;;;;3.37;61.79;95948.78;5029636;28;20214;-71
2023/01/25 05:27:12;;;;;;;4.20;3.80;;;;;;;3.33;62.18;95957.69;5032437;28;20228;-71
2023/01/25 05:29:39;;;;;;;3.33;3.03;;;;;;;3.36;61.90;95950.53;5045803;28;20214;-72
2023/01/25 05:32:15;;;;;;;3.67;3.30;;;;;;;3.28;62.66;95955.34;5030131;28;20276;-71
2023/01/25 05:34:41;;;;;;;4.07;3.43;;;;;;;3.32;62.51;95954.25;5046233;28;20234;-71
2023/01/25 05:37:07;;;;;;;3.90;3.50;;;;;;;3.37;61.93;95959.19;5018923;28;20309;-72
2023/01/25 05:39:33;;;;;;;3.00;2.70;;;;;;;3.33;61.72;95945.53;5030868;28;20566;-70
2023/01/25 05:41:59;;;;;;;3.40;2.93;;;;;;;3.35;61.34;95948.06;5031920;28;20223;-71
2023/01/25 05:44:24;;;;;;;3.00;2.70;;;;;;;3.41;61.57;95952.91;5030325;28;20229;-71
2023/01/25 05:46:50;;;;;;;3.70;3.20;;;;;;;3.34;61.80;95962.78;5031123;28;20320;-72
2023/01/25 05:49:16;;;;;;;4.40;3.30;;;;;;;3.24;61.78;95961.63;5028501;28;20222;-72
2023/01/25 05:51:42;;;;;;;3.73;3.20;;;;;;;3.34;61.44;95967.97;5029829;28;20190;-73
2023/01/25 05:54:12;;;;;;;4.30;3.50;;;;;;;3.48;61.23;95960.28;5031550;28;20190;-73
2023/01/25 05:56:38;;;;;;;3.80;3.10;;;;;;;3.31;60.76;95960.34;5022970;28;20297;-74
2023/01/25 05:59:03;;;;;;;4.80;3.30;;;;;;;3.15;60.82;95967.31;5030358;28;20298;-75
2023/01/25 06:01:29;;;;;;;3.40;2.67;;;;;;;3.33;60.79;95968.09;5030930;28;20493;-72
2023/01/25 06:03:54;;;;;;;3.33;2.57;;;;;;;3.39;60.02;95962.53;5031349;28;20222;-73
2023/01/25 06:06:21;;;;;;;3.13;2.83;;;;;;;3.45;60.23;95964.81;5030279;28;20289;-62
2023/01/25 06:08:47;;;;;;;4.03;2.80;;;;;;;3.44;60.01;95963.13;5031692;28;20222;-63
2023/01/25 06:11:15;;;;;;;4.43;2.83;;;;;;;3.45;60.37;95959.63;5029799;28;20226;-63
2023/01/25 06:14:06;;;;;;;5.30;3.50;;;;;;;3.42;60.51;95968.44;5027188;28;20283;-62
2023/01/25 06:16:31;;;;;;;3.67;3.37;;;;;;;3.42;60.75;95965.81;5004040;28;20337;-62
2023/01/25 06:18:57;;;;;;;4.43;3.60;;;;;;;3.44;60.57;95969.16;4990314;28;20684;-63
2023/01/25 06:21:22;;;;;;;4.43;3.60;;;;;;;3.49;60.40;95977.53;4989433;28;20215;-62
2023/01/25 06:23:48;;;;;;;4.00;3.60;;;;;;;2.95;62.01;95974.44;4988717;28;20220;-63
2023/01/25 06:26:14;;;;;;;4.33;3.93;;;;;;;2.70;63.29;95976.63;4990340;28;20234;-63
2023/01/25 06:28:40;;;;;;;4.60;3.70;;;;;;;2.51;63.95;95979.34;4992532;28;20219;-63
2023/01/25 06:31:08;;;;;;;6.50;4.20;;;;;;;2.56;64.08;95979.97;4988703;28;20231;-64
2023/01/25 06:33:35;;;;;;;4.33;3.93;;;;;;;2.96;62.70;95972.66;4989536;28;20191;-64
2023/01/25 06:36:06;;;;;;;4.73;3.93;;;;;;;2.97;62.49;95975.19;4989191;28;20210;-65
2023/01/25 06:38:32;;;;;;;6.33;5.23;;;;;;;3.20;61.93;95970.50;4994650;28;20322;-68
2023/01/25 06:41:02;;;;;;;4.63;4.10;;;;;;;3.12;62.02;95967.50;4990694;28;20298;-68
2023/01/25 06:43:29;;;;;;;5.77;4.40;;;;;;;3.08;62.07;95975.47;4980099;28;20219;-69
2023/01/25 06:45:59;;;;;;;4.13;3.73;;;;;;;3.29;61.86;95972.63;4990924;28;20223;-69
2023/01/25 06:48:25;;;;;;;3.47;3.17;;;;;;;3.45;61.00;95975.22;4990095;28;20191;-71
2023/01/25 06:50:58;;;;;;;4.20;3.80;;;;;;;3.39;61.53;95973.78;4991717;28;20230;-72
2023/01/25 06:53:28;;;;;;;4.47;4.00;;;;;;;3.44;60.75;95969.16;4985361;28;20227;-72
2023/01/25 06:56:06;;;;;;;6.13;3.80;;;;;;;3.50;60.12;95970.56;4990815;28;20301;-72
2023/01/25 06:58:32;;;;;;;4.30;3.90;;;;;;;3.49;60.51;95976.72;4990802;28;20293;-72
2023/01/25 07:01:04;;;;;;;3.50;3.20;;;;;;;3.57;60.05;95978.88;4990399;28;20243;-72
2023/01/25 07:03:31;;;;;;;4.73;3.57;;;;;;;3.52;59.97;95971.34;4987947;28;20247;-71
2023/01/25 07:06:04;;;;;;;4.10;3.70;;;;;;;3.43;60.61;95971.88;4991266;28;20290;-73
2023/01/25 07:08:31;;;;;;;3.80;3.40;;;;;;;3.46;60.58;95971.69;4991110;28;20257;-72
2023/01/25 07:11:00;;;;;;;3.70;3.40;;;;;;;3.32;60.86;95969.84;4990238;28;20234;-73
2023/01/25 07:13:27;;;;;;;4.00;3.60;;;;;;;3.39;60.87;95968.56;4986871;28;20270;-75
2023/01/25 07:15:58;;;;;;;5.23;4.23;;;;;;;3.34;60.86;95967.97;5020604;28;20222;-75
2023/01/25 07:18:25;;;;;;;4.70;4.27;;;;;;;3.31;61.25;95968.16;5030894;28;20206;-80
2023/01/25 07:20:51;;;;;;;4.80;4.40;;;;;;;3.26;61.62;95971.03;5024512;28;20210;-77
2023/01/25 07:23:17;;;;;;;6.53;4.53;;;;;;;3.49;61.22;95969.75;5025744;28;20229;-78
2023/01/25 07:25:45;;;;;;;5.33;4.70;;;;;;;3.28;61.41;95976.13;5019286;28;20222;-74
2023/01/25 07:28:12;;;;;;;6.70;4.60;;;;;;;3.31;61.40;95978.56;5026237;28;20223;-74
2023/01/25 07:30:37;;;;;;;6.93;5.27;;;;;;;3.41;61.29;95974.53;5010731;28;20202;-74
2023/01/25 07:33:03;;;;;;;8.60;6.50;;;;;;;3.63;60.46;95974.16;5022638;28;20182;-75
2023/01/25 07:35:28;;;;;;;7.93;5.93;;;;;;;3.62;60.08;95984.69;5027508;28;20243;-74
2023/01/25 07:37:54;;;;;;;8.60;7.33;;;;;;;3.58;60.49;95976.19;5028748;28;20241;-74
2023/01/25 07:40:20;;;;;;;11.03;6.00;;;;;;;3.60;59.83;95976.13;5023452;28;20228;-74
2023/01/25 07:42:45;;;;;;;7.57;6.87;;;;;;;3.70;60.11;95985.91;5023549;28;20186;-74
2023/01/25 07:45:10;;;;;;;7.10;6.40;;;;;;;3.53;60.89;95979.06;5021152;28;20266;-75
2023/01/25 07:47:36;;;;;;;8.47;6.40;;;;;;;3.74;60.28;95987.44;5029975;28;20214;-74
2023/01/25 07:50:02;;;;;;;8.83;7.30;;;;;;;3.66;60.44;95988.75;5029738;28;20222;-73
2023/01/25 07:52:28;;;;;;;7.63;6.10;;;;;;;3.60;60.93;95986.50;5034999;28;20224;-74
2023/01/25 07:54:53;;;;;;;7.87;6.43;;;;;;;3.77;60.56;95989.03;5026800;28;20713;-75
2023/01/25 07:57:19;;;;;;;8.83;6.60;;;;;;;3.62;60.70;95982.06;5026594;28;20191;-75
2023/01/25 07:59:44;;;;;;;9.17;7.03;;;;;;;3.42;61.54;95985.75;5032305;28;20253;-73
2023/01/25 08:02:11;;;;;;;9.60;7.93;;;;;;;3.43;61.81;95988.28;5030409;28;20341;-74
2023/01/25 08:04:37;;;;;;;11.03;8.00;;;;;;;3.54;61.42;95985.09;5030901;28;20229;-75
2023/01/25 08:07:03;;;;;;;9.50;7.97;;;;;;;3.69;61.12;95980.81;5033738;28;20232;-74
2023/01/25 08:09:28;;;;;;;8.60;7.70;;;;;;;3.72;61.33;95978.88;5027643;28;20198;-71
2023/01/25 08:11:54;;;;;;;9.67;7.77;;;;;;;3.65;61.11;95976.69;5031870;28;20293;-73
2023/01/25 08:14:19;;;;;;;11.80;8.97;;;;;;;3.53;61.66;95979.06;5027666;28;20237;-72
2023/01/25 08:16:45;;;;;;;8.90;7.83;;;;;;;3.64;61.19;95978.47;5033872;28;20320;-71
2023/01/25 08:19:10;;;;;;;11.07;8.70;;;;;;;3.70;61.25;95979.88;5025044;28;20308;-71
2023/01/25 08:21:36;;;;;;;11.30;7.73;;;;;;;3.68;61.37;95984.31;5024984;28;20247;-70
2023/01/25 08:24:06;;;;;;;9.93;8.40;;;;;;;3.66;61.24;95981.81;5032279;28;20241;-70
2023/01/25 08:26:32;;;;;;;9.87;8.27;;;;;;;3.76;61.24;95974.31;5031234;28;20336;-72
2023/01/25 08:28:58;;;;;;;9.83;8.07;;;;;;;3.61;61.61;95967.38;5032178;28;20222;-72
2023/01/25 08:31:26;;;;;;;9.67;8.17;;;;;;;3.77;61.72;95983.81;5034879;28;20218;-72
2023/01/25 08:33:52;;;;;;;10.30;8.67;;;;;;;3.81;61.43;95974.91;5028925;28;20228;-71
2023/01/25 08:36:19;;;;;;;9.60;8.60;;;;;;;3.80;61.00;95975.00;5031228;28;20189;-73
2023/01/25 08:38:46;;;;;;;10.67;9.10;;;;;;;3.76;61.81;95975.16;5027055;28;20230;-73
2023/01/25 08:41:15;;;;;;;8.77;7.87;;;;;;;3.76;62.04;95974.31;5037143;28;20237;-74
2023/01/25 08:43:41;;;;;;;9.20;8.20;;;;;;;3.93;61.46;95971.63;5028861;28;20226;-72
2023/01/25 08:46:07;;;;;;;9.17;8.27;;;;;;;3.92;61.37;95972.53;5028859;28;20222;-73
2023/01/25 08:48:32;;;;;;;9.40;8.40;;;;;;;3.91;61.26;95970.03;5034680;28;20201;-73
2023/01/25 08:50:58;;;;;;;10.63;9.03;;;;;;;3.90;61.55;95964.00;5030461;28;20224;-71
2023/01/25 08:53:27;;;;;;;10.37;9.33;;;;;;;3.89;61.64;95962.28;5022253;28;20277;-70
2023/01/25 08:55:52;;;;;;;9.57;8.37;;;;;;;3.70;62.79;95966.88;5027142;28;20218;-74
2023/01/25 08:58:18;;;;;;;9.37;8.47;;;;;;;3.97;61.92;95967.91;5025172;28;20248;-72
2023/01/25 09:00:44;;;;;;;11.10;9.20;;;;;;;3.76;63.47;95974.31;5032003;28;20221;-75
2023/01/25 09:03:10;;;;;;;10.90;8.77;;;;;;;3.58;63.44;95973.59;5027761;28;20194;-73
2023/01/25 09:05:37;;;;;;;10.37;9.23;;;;;;;3.86;62.78;95970.28;5028219;28;20221;-77
2023/01/25 09:08:05;;;;;;;9.53;8.17;;;;;;;3.86;62.73;95974.66;5029080;28;20223;-77
2023/01/25 09:10:31;;;;;;;9.33;8.37;;;;;;;3.94;62.45;95965.47;5029984;28;20220;-73
2023/01/25 09:12:56;;;;;;;8.90;8.10;;;;;;;4.09;62.21;95966.38;5030702;28;20229;-73
2023/01/25 09:15:22;;;;;;;8.63;7.83;;;;;;;4.18;61.87;95965.81;5028000;28;20229;-74
2023/01/25 09:17:54;;;;;;;8.17;7.47;;;;;;;3.91;62.13;95954.41;5028253;28;20222;-73
2023/01/25 09:20:22;;;;;;;9.73;7.90;;;;;;;4.15;62.32;95954.75;5034189;28;20292;-73
2023/01/25 09:22:48;;;;;;;9.27;8.37;;;;;;;3.96;62.86;95948.00;5027964;28;20245;-78
2023/01/25 09:25:13;;;;;;;8.70;7.70;;;;;;;4.12;62.55;95954.94;5037184;28;20217;-74
2023/01/25 09:27:39;;;;;;;8.00;7.30;;;;;;;4.16;62.18;95952.03;5027504;28;20345;-73
2023/01/25 09:30:07;;;;;;;9.33;8.43;;;;;;;4.10;62.69;95944.59;5036185;28;20186;-72
2023/01/25 09:32:32;;;;;;;8.33;7.53;;;;;;;3.92;63.56;95943.91;5034310;28;20226;-72
2023/01/25 09:34:58;;;;;;;9.07;8.27;;;;;;;3.98;63.44;95945.31;5031347;28;20234;-75
2023/01/25 09:37:23;;;;;;;8.90;8.00;;;;;;;3.98;63.27;95934.91;5033730;28;20214;-70
2023/01/25 09:39:48;;;;;;;9.07;8.20;;;;;;;4.05;63.58;95928.41;5036224;28;20229;-72
2023/01/25 09:42:38;;;;;;;8.73;7.80;;;;;;;4.20;63.06;95935.34;5031666;28;20244;-72
2023/01/25 09:45:10;;;;;;;9.70;8.77;;;;;;;3.96;63.76;95922.00;5038731;28;20260;-72
2023/01/25 09:47:44;;;;;;;11.13;10.03;;;;;;;4.07;64.12;95920.53;5031074;28;20281;-72
2023/01/25 09:50:15;;;;;;;9.90;8.90;;;;;;;4.23;63.44;95921.31;5037181;28;20257;-77
2023/01/25 09:52:59;;;;;;;10.00;9.00;;;;;;;3.93;64.18;95903.97;5029954;28;20218;-75
2023/01/25 09:55:28;;;;;;;10.10;9.10;;;;;;;4.02;64.10;95910.38;5029324;28;20221;-80
2023/01/25 09:57:58;;;;;;;9.53;8.50;;;;;;;4.20;63.72;95906.69;5034272;28;20218;-79
2023/01/25 10:00:33;;;;;;;9.00;8.10;;;;;;;4.21;63.67;95907.53;5034740;28;20198;-74
2023/01/25 10:03:24;;;;;;;8.70;7.80;;;;;;;4.27;62.43;95894.13;5024993;28;20224;-75
2023/01/25 10:05:55;;;;;;;8.43;7.57;;;;;;;4.41;62.47;95888.97;5027058;28;20244;-75
2023/01/25 10:08:28;;;;;;;7.80;7.03;;;;;;;4.63;62.15;95882.44;5026312;28;20218;-74
2023/01/25 10:11:02;;;;;;;7.37;6.67;;;;;;;4.70;61.28;95883.72;5030671;28;20242;-75
2023/01/25 10:13:30;;;;;;;6.30;5.70;;;;;;;4.76;60.45;95885.97;5043572;28;20565;-76
2023/01/25 10:16:02;;;;;;;7.03;6.33;;;;;;;4.56;60.79;95881.13;5030174;28;20230;-75
2023/01/25 10:18:38;;;;;;;7.00;6.30;;;;;;;4.82;60.23;95864.72;5031530;28;20247;-76
2023/01/25 10:21:11;;;;;;;6.77;6.17;;;;;;;4.86;60.28;95862.75;5022931;28;20317;-72
2023/01/25 10:23:57;;;;;;;6.40;5.80;;;;;;;4.96;59.22;95860.41;5029423;28;20291;-73
2023/01/25 10:26:29;;;;;;;7.07;6.37;;;;;;;5.04;59.54;95865.97;5038502;28;20270;-73
2023/01/25 10:29:06;;;;;;;7.67;6.20;;;;;;;4.96;58.67;95858.66;5031760;28;20226;-72
2023/01/25 10:31:47;;;;;;;6.67;5.90;;;;;;;5.12;58.63;95866.34;5028700;28;20222;-73
2023/01/25 10:34:26;;;;;;;5.40;4.93;;;;;;;4.97;58.39;95855.13;5022020;28;20225;-71
2023/01/25 10:37:00;;;;;;;5.77;5.23;;;;;;;4.86;57.85;95850.59;5025315;28;20218;-71
2023/01/25 10:39:25;;;;;;;6.30;5.50;;;;;;;4.89;58.15;95846.09;5029649;28;20197;-71
2023/01/25 10:42:02;;;;;;;5.83;5.30;;;;;;;5.08;57.36;95844.84;5030980;28;20311;-71
2023/01/25 10:44:28;;;;;;;6.17;5.57;;;;;;;5.05;57.51;95836.38;5032738;28;20228;-71
2023/01/25 10:47:06;;;;;;;5.83;5.20;;;;;;;5.23;57.61;95835.19;5029236;28;20226;-72
2023/01/25 10:49:54;;;;;;;6.53;5.00;;;;;;;5.29;56.22;95834.81;5025061;28;20221;-72
2023/01/25 10:52:21;;;;;;;11.03;5.73;;;;;;;5.05;56.92;95831.16;5040409;28;20218;-73
2023/01/25 10:55:04;;;;;;;5.77;4.23;;;;;;;5.21;55.43;95821.44;5027515;28;20194;-72
2023/01/25 10:57:29;;;;;;;7.10;5.03;;;;;;;5.26;55.09;95815.91;5012343;28;20187;-73
2023/01/25 10:59:55;;;;;;;4.90;4.40;;;;;;;5.31;56.15;95812.06;5030832;28;20207;-73
2023/01/25 11:02:43;;;;;;;4.97;4.40;;;;;;;5.16;56.79;95813.06;5033464;28;20288;-72
2023/01/25 11:05:18;;;;;;;7.43;4.53;;;;;;;5.23;55.41;95805.69;5026658;28;20226;-73
2023/01/25 11:07:45;;;;;;;5.23;4.73;;;;;;;5.38;55.04;95807.28;5022029;28;20224;-73
2023/01/25 11:10:29;;;;;;;5.17;4.67;;;;;;;5.45;55.14;95803.34;5022867;28;20222;-73
2023/01/25 11:13:13;;;;;;;5.83;5.20;;;;;;;5.43;54.85;95807.00;5032872;28;20221;-73
2023/01/25 11:15:43;;;;;;;6.13;5.53;;;;;;;5.51;54.98;95802.09;5027826;28;20250;-73
2023/01/25 11:18:18;;;;;;;5.67;4.80;;;;;;;5.41;55.07;95807.09;5025892;28;20202;-72
2023/01/25 11:20:43;;;;;;;6.27;4.63;;;;;;;5.39;54.85;95793.28;5031262;28;20898;-76
2023/01/25 11:23:23;;;;;;;5.37;4.87;;;;;;;5.47;54.39;95784.97;5030960;28;20240;-77
2023/01/25 11:25:49;;;;;;;8.07;4.77;;;;;;;5.40;54.56;95789.78;5028376;28;20217;-74
2023/01/25 11:28:24;;;;;;;5.13;4.70;;;;;;;5.44;54.13;95790.41;5030375;28;20272;-74
2023/01/25 11:30:51;;;;;;;8.67;5.27;;;;;;;5.56;54.23;95779.16;5027098;28;20232;-73
2023/01/25 11:33:19;;;;;;;6.00;5.40;;;;;;;5.46;54.29;95783.31;5025158;28;20190;-73
2023/01/25 11:36:00;;;;;;;7.20;4.93;;;;;;;5.56;53.84;95773.94;5030185;28;20225;-75
2023/01/25 11:38:25;;;;;;;8.00;5.57;;;;;;;5.34;54.27;95782.34;5025197;28;20615;-74
2023/01/25 11:41:06;;;;;;;6.20;5.27;;;;;;;5.31;54.38;95782.53;5027160;28;20229;-75
2023/01/25 11:43:37;;;;;;;6.67;5.60;;;;;;;5.28;54.66;95773.16;5023758;28;20236;-71
2023/01/25 11:46:02;;;;;;;6.60;5.93;;;;;;;5.57;54.22;95749.50;5027019;28;20222;-71
2023/01/25 11:49:01;;;;;;;6.83;5.27;;;;;;;5.60;53.92;95749.31;5031738;28;20698;-76
2023/01/25 11:51:40;;;;;;;8.00;4.80;;;;;;;5.75;53.33;95747.44;5026918;28;20308;-74
2023/01/25 11:54:36;;;;;;;5.77;4.93;;;;;;;5.36;54.76;95740.53;5028499;28;20248;-75
2023/01/25 11:57:25;;;;;;;5.40;4.33;;;;;;;5.57;54.15;95733.03;5038917;28;20234;-75
2023/01/25 12:00:09;;;;;;;8.20;5.50;;;;;;;5.59;53.63;95744.22;5022863;28;20225;-74
2023/01/25 12:03:06;;;;;;;8.73;6.90;;;;;;;5.60;53.98;95736.25;5022358;28;20436;-76